NCAR-RAP Real-Time Weather Data

Output produced by METARs form (23 July 2018  17:09 UTC)
found at http://weather.rap.ucar.edu/surface/
 
 
KCTB 231656Z AUTO 14013G20KT 10SM CLR 23/03 A3026 RMK AO2 SLP225 T02280033 TSNO
KCTB 231556Z AUTO 14010KT 10SM CLR 20/05 A3028 RMK AO2 SLP233 T02000050 TSNO
 
KHVR 231653Z AUTO 07007KT 10SM CLR 24/05 A3025 RMK AO2 SLP233 T02440050
KHVR 231553Z AUTO 07010KT 10SM CLR 21/06 A3027 RMK AO2 SLP239 T02110061
 
KGTF 231653Z 00000KT 10SM CLR 24/05 A3026 RMK AO2 SLP217 T02390050
KGTF 231553Z 19004KT 10SM CLR 22/06 A3027 RMK AO2 SLP223 T02170056
 
KGFA 231658Z AUTO 00000KT 10SM CLR 22/06 A3025 RMK AO2 SLP231 T02180059 $
KGFA 231558Z AUTO 20003KT 10SM CLR 20/06 A3027 RMK AO2 SLP241 T01980061 $
 
 
KHLN 231653Z 00000KT 10SM CLR 22/05 A3027 RMK AO2 SLP235 T02170050
KHLN 231553Z 00000KT 10SM CLR 20/04 A3028 RMK AO2 SLP242 T02000044
 
KLWT 231654Z AUTO 11012KT 10SM CLR 23/04 A3029 RMK AO2 SLP227 T02330044
KLWT 231554Z AUTO 09010KT 10SM CLR 22/06 A3030 RMK AO2 SLP228 T02170056